createdAt,value
2023-05-19T00:00:54.621Z,33.24
2023-05-19T00:01:54.701Z,33.26
2023-05-19T00:02:54.663Z,33.26
2023-05-19T00:03:54.676Z,33.25
2023-05-19T00:04:54.580Z,33.24
2023-05-19T00:05:54.653Z,33.24
2023-05-19T00:06:54.583Z,33.26
2023-05-19T00:07:54.574Z,33.28
2023-05-19T00:08:54.607Z,33.30
2023-05-19T00:09:54.599Z,33.28
2023-05-19T00:10:54.583Z,33.28
2023-05-19T00:11:54.591Z,33.26
2023-05-19T00:12:54.575Z,33.27
2023-05-19T00:13:54.583Z,33.28
2023-05-19T00:14:54.597Z,33.30
2023-05-19T00:15:54.593Z,33.30
2023-05-19T00:16:54.576Z,33.28
2023-05-19T00:17:54.618Z,33.31
2023-05-19T00:18:54.607Z,33.30
2023-05-19T00:19:54.578Z,33.31
2023-05-19T00:20:54.553Z,33.29
2023-05-19T00:21:54.579Z,33.29
2023-05-19T00:22:54.547Z,33.30
2023-05-19T00:23:54.587Z,33.29
2023-05-19T00:24:54.557Z,33.30
2023-05-19T00:25:54.549Z,33.31
2023-05-19T00:26:54.589Z,33.31
2023-05-19T00:27:54.564Z,33.31
2023-05-19T00:28:54.558Z,33.32
2023-05-19T00:29:54.547Z,33.31
2023-05-19T00:30:54.556Z,33.33
2023-05-19T00:31:54.580Z,33.35
2023-05-19T00:32:54.607Z,33.34
2023-05-19T00:33:54.555Z,33.35
2023-05-19T00:34:54.589Z,33.34
2023-05-19T00:35:54.548Z,33.32
2023-05-19T00:36:54.540Z,33.33
2023-05-19T00:37:54.553Z,33.36
2023-05-19T00:38:54.544Z,33.35
2023-05-19T00:39:54.550Z,33.35
2023-05-19T00:40:54.576Z,33.35
2023-05-19T00:41:54.558Z,33.36
2023-05-19T00:42:54.531Z,33.37
2023-05-19T00:43:54.555Z,33.37
2023-05-19T00:44:54.543Z,33.38
2023-05-19T00:45:54.555Z,33.37
2023-05-19T00:46:54.635Z,33.39
2023-05-19T00:47:54.587Z,33.39
2023-05-19T00:48:54.541Z,33.38
2023-05-19T00:49:54.559Z,33.44
2023-05-19T00:50:54.546Z,33.38
2023-05-19T00:51:54.541Z,33.40
2023-05-19T00:52:54.548Z,33.40
2023-05-19T00:53:54.539Z,33.39
2023-05-19T00:54:54.563Z,33.43
2023-05-19T00:55:54.526Z,33.43
2023-05-19T00:56:54.544Z,33.42
2023-05-19T00:57:54.521Z,33.45
2023-05-19T00:58:54.547Z,33.45
2023-05-19T00:59:54.547Z,33.47
2023-05-19T01:00:54.556Z,33.49
2023-05-19T01:01:54.537Z,33.47
2023-05-19T01:02:54.664Z,33.48
2023-05-19T01:03:54.628Z,33.52
2023-05-19T01:04:54.525Z,33.53
2023-05-19T01:05:54.536Z,33.49
2023-05-19T01:06:54.520Z,33.50
2023-05-19T01:07:54.537Z,33.53
2023-05-19T01:08:54.513Z,33.52
2023-05-19T01:09:54.555Z,33.51
2023-05-19T01:10:54.524Z,33.54
2023-05-19T01:11:54.545Z,33.54
2023-05-19T01:12:54.543Z,33.57
2023-05-19T01:13:54.538Z,33.56
2023-05-19T01:14:54.527Z,33.56
2023-05-19T01:15:54.553Z,33.56
2023-05-19T01:16:54.580Z,33.59
2023-05-19T01:17:54.635Z,33.59
2023-05-19T01:18:54.645Z,33.58
2023-05-19T01:19:54.526Z,33.60
2023-05-19T01:20:54.541Z,33.58
2023-05-19T01:21:54.534Z,33.60
2023-05-19T01:22:54.500Z,33.58
2023-05-19T01:23:54.505Z,33.60
2023-05-19T01:24:54.529Z,33.60
2023-05-19T01:25:54.544Z,33.59
2023-05-19T01:26:54.531Z,33.58
2023-05-19T01:27:54.500Z,33.55
2023-05-19T01:28:54.549Z,33.53
2023-05-19T01:29:54.522Z,33.53
2023-05-19T01:30:54.521Z,33.50
2023-05-19T01:31:54.576Z,33.48
2023-05-19T01:32:54.508Z,33.48
2023-05-19T01:33:54.536Z,33.44
2023-05-19T01:34:54.568Z,33.40
2023-05-19T01:35:54.599Z,33.36
2023-05-19T01:36:54.643Z,33.35
2023-05-19T01:37:54.714Z,33.30
2023-05-19T01:38:54.767Z,33.26
2023-05-19T01:39:54.780Z,33.23
2023-05-19T01:40:54.863Z,33.16
2023-05-19T01:41:54.925Z,33.17
2023-05-19T01:42:57.289Z,33.11
2023-05-19T01:43:55.218Z,33.08
2023-05-19T01:44:56.056Z,33.05
2023-05-19T01:45:55.348Z,33.04
2023-05-19T01:46:55.381Z,33.01
2023-05-19T01:47:55.451Z,32.98
2023-05-19T01:48:55.458Z,32.96
2023-05-19T01:49:55.551Z,32.95
2023-05-19T01:50:55.592Z,32.92
2023-05-19T01:51:55.654Z,32.91
2023-05-19T01:52:55.682Z,32.89
2023-05-19T01:53:55.791Z,32.86
2023-05-19T01:54:55.812Z,32.81
2023-05-19T01:55:55.886Z,32.79
2023-05-19T01:56:55.927Z,32.77
2023-05-19T01:57:56.013Z,32.77
2023-05-19T01:58:56.028Z,32.73
2023-05-19T01:59:56.075Z,32.72
2023-05-19T02:00:56.183Z,32.71
2023-05-19T02:01:56.181Z,32.67
2023-05-19T02:02:56.311Z,32.66
2023-05-19T02:03:56.299Z,32.63
2023-05-19T02:04:56.350Z,32.62
2023-05-19T02:05:56.399Z,32.61
2023-05-19T02:06:56.438Z,32.61
2023-05-19T02:07:56.495Z,32.60
2023-05-19T02:08:56.526Z,32.61
2023-05-19T02:09:56.560Z,32.59
2023-05-19T02:10:56.602Z,32.60
2023-05-19T02:11:56.681Z,32.56
2023-05-19T02:12:56.726Z,32.56
2023-05-19T02:13:56.741Z,32.55
2023-05-19T02:14:56.784Z,32.53
2023-05-19T02:15:56.878Z,32.52
2023-05-19T02:16:56.865Z,32.52
2023-05-19T02:17:56.911Z,32.50
2023-05-19T02:18:56.969Z,32.50
2023-05-19T02:19:56.983Z,32.47
2023-05-19T02:20:56.992Z,32.47
2023-05-19T02:21:57.057Z,32.46
2023-05-19T02:22:57.068Z,32.47
2023-05-19T02:23:57.108Z,32.45
2023-05-19T02:24:57.145Z,32.44
2023-05-19T02:25:57.211Z,32.44
2023-05-19T02:26:57.250Z,32.43
2023-05-19T02:27:57.275Z,32.42
2023-05-19T02:28:57.292Z,32.42
2023-05-19T02:29:57.325Z,32.42
2023-05-19T02:30:57.370Z,32.41
2023-05-19T02:31:57.449Z,32.44
2023-05-19T02:32:57.492Z,32.41
2023-05-19T02:33:57.470Z,32.42
2023-05-19T02:34:57.489Z,32.42
2023-05-19T02:35:57.537Z,32.42
2023-05-19T02:36:57.536Z,32.41
2023-05-19T02:37:57.565Z,32.38
2023-05-19T02:38:57.606Z,32.38
2023-05-19T02:39:57.649Z,32.33
2023-05-19T02:40:57.690Z,32.34
2023-05-19T02:41:57.711Z,32.33
2023-05-19T02:42:57.724Z,32.33
2023-05-19T02:43:57.764Z,32.29
2023-05-19T02:44:57.770Z,32.31
2023-05-19T02:45:57.860Z,32.33
2023-05-19T02:46:57.849Z,32.32
2023-05-19T02:47:57.935Z,32.30
2023-05-19T02:48:57.914Z,32.30
2023-05-19T02:49:57.929Z,32.30
2023-05-19T02:50:57.987Z,32.31
2023-05-19T02:51:58.015Z,32.30
2023-05-19T02:52:58.018Z,32.30
2023-05-19T02:53:58.065Z,32.29
2023-05-19T02:54:58.082Z,32.30
2023-05-19T02:55:58.114Z,32.28
2023-05-19T02:56:58.134Z,32.26
2023-05-19T02:57:58.152Z,32.25
2023-05-19T02:58:58.208Z,32.25
2023-05-19T02:59:58.233Z,32.25
2023-05-19T03:00:58.220Z,32.24
2023-05-19T03:01:58.316Z,32.24
2023-05-19T03:02:58.366Z,32.25
2023-05-19T03:03:58.386Z,32.23
2023-05-19T03:04:58.336Z,32.22
2023-05-19T03:05:58.327Z,32.23
2023-05-19T03:06:58.351Z,32.24
2023-05-19T03:07:58.377Z,32.23
2023-05-19T03:08:58.415Z,32.22
2023-05-19T03:09:58.421Z,32.23
2023-05-19T03:10:58.423Z,32.26
2023-05-19T03:11:58.445Z,32.22
2023-05-19T03:12:58.467Z,32.24
2023-05-19T03:13:58.489Z,32.23
2023-05-19T03:14:58.536Z,32.22
2023-05-19T03:15:58.607Z,32.25
2023-05-19T03:16:58.603Z,32.24
2023-05-19T03:17:58.610Z,32.25
2023-05-19T03:18:58.598Z,32.22
2023-05-19T03:19:58.598Z,32.24
2023-05-19T03:20:58.631Z,32.25
2023-05-19T03:21:58.639Z,32.24
2023-05-19T03:22:58.712Z,32.26
2023-05-19T03:23:58.709Z,32.25
2023-05-19T03:24:58.725Z,32.24
2023-05-19T03:25:58.700Z,32.24
2023-05-19T03:26:58.746Z,32.23
2023-05-19T03:27:58.760Z,32.21
2023-05-19T03:28:58.746Z,32.20
2023-05-19T03:29:58.769Z,32.20
2023-05-19T03:30:58.814Z,32.17
2023-05-19T03:31:58.939Z,32.18
2023-05-19T03:32:58.902Z,32.20
2023-05-19T03:33:58.852Z,32.17
2023-05-19T03:34:58.881Z,32.18
2023-05-19T03:35:58.889Z,32.18
2023-05-19T03:36:58.889Z,32.18
2023-05-19T03:37:58.919Z,32.16
2023-05-19T03:38:58.910Z,32.15
2023-05-19T03:39:58.942Z,32.18
2023-05-19T03:40:58.958Z,32.15
2023-05-19T03:41:58.995Z,32.16
2023-05-19T03:42:58.975Z,32.17
2023-05-19T03:43:59.065Z,32.17
2023-05-19T03:44:59.022Z,32.16
2023-05-19T03:45:59.038Z,32.14
2023-05-19T03:46:59.060Z,32.13
2023-05-19T03:47:59.089Z,32.14
2023-05-19T03:48:59.071Z,32.14
2023-05-19T03:49:59.092Z,32.15
2023-05-19T03:50:59.096Z,32.15
2023-05-19T03:51:59.084Z,32.14
2023-05-19T03:52:59.153Z,32.12
2023-05-19T03:53:59.493Z,32.13
2023-05-19T03:54:59.550Z,32.14
2023-05-19T03:55:59.163Z,32.13
2023-05-19T03:56:59.161Z,32.10
2023-05-19T03:57:59.158Z,32.09
2023-05-19T03:58:59.187Z,32.10
2023-05-19T03:59:59.184Z,32.10
2023-05-19T04:00:59.200Z,32.11
2023-05-19T04:01:59.228Z,32.09
2023-05-19T04:02:59.274Z,32.10
2023-05-19T04:03:59.220Z,32.05
2023-05-19T04:04:59.313Z,32.08
2023-05-19T04:05:59.265Z,32.08
2023-05-19T04:06:59.238Z,32.06
2023-05-19T04:07:59.257Z,32.06
2023-05-19T04:08:59.279Z,32.09
2023-05-19T04:09:59.305Z,32.07
2023-05-19T04:10:59.296Z,32.07
2023-05-19T04:11:59.308Z,32.07
2023-05-19T04:12:59.309Z,32.06
2023-05-19T04:13:59.314Z,32.05
2023-05-19T04:14:59.339Z,32.06
2023-05-19T04:15:59.378Z,32.03
2023-05-19T04:16:59.333Z,32.03
2023-05-19T04:17:59.365Z,32.02
2023-05-19T04:18:59.385Z,32.05
2023-05-19T04:19:59.362Z,32.02
2023-05-19T04:20:59.394Z,32.03
2023-05-19T04:21:59.398Z,32.04
2023-05-19T04:22:59.417Z,32.01
2023-05-19T04:23:59.417Z,32.01
2023-05-19T04:24:59.436Z,32.01
2023-05-19T04:25:59.449Z,32.01
2023-05-19T04:26:59.451Z,32.04
2023-05-19T04:27:59.466Z,32.03
2023-05-19T04:28:59.465Z,32.01
2023-05-19T04:29:59.468Z,32.03
2023-05-19T04:30:59.502Z,32.04
2023-05-19T04:31:59.469Z,32.05
2023-05-19T04:32:59.521Z,32.06
2023-05-19T04:33:59.493Z,32.06
2023-05-19T04:34:59.496Z,32.08
2023-05-19T04:35:59.507Z,32.09
2023-05-19T04:36:59.511Z,32.09
2023-05-19T04:37:59.541Z,32.08
2023-05-19T04:38:59.548Z,32.10
2023-05-19T04:39:59.560Z,32.12
2023-05-19T04:40:59.581Z,32.13
2023-05-19T04:41:59.553Z,32.13
2023-05-19T04:42:59.592Z,32.14
2023-05-19T04:43:59.608Z,32.13
2023-05-19T04:44:59.629Z,32.15
2023-05-19T04:45:59.598Z,32.17
2023-05-19T04:46:59.662Z,32.14
2023-05-19T04:47:59.706Z,32.14
2023-05-19T04:48:59.636Z,32.17
2023-05-19T04:50:00.733Z,32.14
2023-05-19T04:50:59.710Z,32.18
2023-05-19T04:51:59.685Z,32.17
2023-05-19T04:52:59.723Z,32.20
2023-05-19T04:53:59.706Z,32.17
2023-05-19T04:54:59.700Z,32.17
2023-05-19T04:55:59.733Z,32.17
2023-05-19T04:56:59.755Z,32.16
2023-05-19T04:57:59.770Z,32.19
2023-05-19T04:58:59.756Z,32.19
2023-05-19T04:59:59.769Z,32.19
2023-05-19T05:01:09.158Z,32.19
2023-05-19T05:01:59.857Z,32.24
2023-05-19T05:02:59.882Z,32.23
2023-05-19T05:03:59.828Z,32.21
2023-05-19T05:04:59.828Z,32.20
2023-05-19T05:05:59.802Z,32.21
2023-05-19T05:06:59.742Z,32.22
2023-05-19T05:07:59.792Z,32.21
2023-05-19T05:08:59.753Z,32.20
2023-05-19T05:09:59.745Z,32.20
2023-05-19T05:10:59.729Z,32.22
2023-05-19T05:11:59.754Z,32.22
2023-05-19T05:12:59.706Z,32.22
2023-05-19T05:13:59.730Z,32.23
2023-05-19T05:14:59.685Z,32.22
2023-05-19T05:15:59.704Z,32.23
2023-05-19T05:16:59.675Z,32.22
2023-05-19T05:17:59.745Z,32.22
2023-05-19T05:18:59.711Z,32.24
2023-05-19T05:19:59.658Z,32.24
2023-05-19T05:20:59.664Z,32.26
2023-05-19T05:21:59.682Z,32.26
2023-05-19T05:22:59.697Z,32.26
2023-05-19T05:23:59.644Z,32.26
2023-05-19T05:24:59.621Z,32.27
2023-05-19T05:25:59.662Z,32.25
2023-05-19T05:26:59.648Z,32.26
2023-05-19T05:27:59.614Z,32.26
2023-05-19T05:28:59.617Z,32.23
2023-05-19T05:29:59.626Z,32.26
2023-05-19T05:30:59.594Z,32.27
2023-05-19T05:31:59.666Z,32.27
2023-05-19T05:32:59.652Z,32.24
2023-05-19T05:33:59.590Z,32.26
2023-05-19T05:34:59.570Z,32.25
2023-05-19T05:35:59.535Z,32.24
2023-05-19T05:37:00.207Z,32.23
2023-05-19T05:37:59.551Z,32.27
2023-05-19T05:38:59.529Z,32.26
2023-05-19T05:39:59.530Z,32.26
2023-05-19T05:40:59.530Z,32.27
2023-05-19T05:41:59.506Z,32.27
2023-05-19T05:42:59.517Z,32.27
2023-05-19T05:43:59.512Z,32.28
2023-05-19T05:44:59.495Z,32.29
2023-05-19T05:46:08.837Z,32.28
2023-05-19T05:46:59.482Z,32.31
2023-05-19T05:47:59.551Z,32.31
2023-05-19T05:48:59.486Z,32.29
2023-05-19T05:49:59.446Z,32.31
2023-05-19T05:50:59.517Z,32.30
2023-05-19T05:52:59.552Z,32.30
2023-05-19T05:53:59.443Z,32.32
2023-05-19T05:54:59.456Z,32.32
2023-05-19T05:55:59.443Z,32.31
2023-05-19T05:56:59.429Z,32.31
2023-05-19T05:57:59.442Z,32.33
2023-05-19T05:58:59.420Z,32.33
2023-05-19T05:59:59.379Z,32.34
2023-05-19T06:00:59.395Z,32.34
2023-05-19T06:01:59.396Z,32.33
2023-05-19T06:02:59.607Z,32.34
2023-05-19T06:03:59.384Z,32.36
2023-05-19T06:04:59.426Z,32.34
2023-05-19T06:05:59.441Z,32.35
2023-05-19T06:06:59.359Z,32.37
2023-05-19T06:07:59.373Z,32.36
2023-05-19T06:08:59.355Z,32.36
2023-05-19T06:09:59.354Z,32.38
2023-05-19T06:10:59.328Z,32.38
2023-05-19T06:11:59.315Z,32.38
2023-05-19T06:12:59.311Z,32.40
2023-05-19T06:13:59.326Z,32.39
2023-05-19T06:14:59.343Z,32.40
2023-05-19T06:16:01.720Z,32.39
2023-05-19T06:16:59.292Z,32.41
2023-05-19T06:17:59.487Z,32.39
2023-05-19T06:18:59.445Z,32.38
2023-05-19T06:19:59.284Z,32.40
2023-05-19T06:20:59.246Z,32.42
2023-05-19T06:21:59.276Z,32.44
2023-05-19T06:22:59.263Z,32.44
2023-05-19T06:23:59.226Z,32.44
2023-05-19T06:24:59.276Z,32.44
2023-05-19T06:25:59.254Z,32.44
2023-05-19T06:26:59.231Z,32.45
2023-05-19T06:27:59.187Z,32.44
2023-05-19T06:28:59.233Z,32.45
2023-05-19T06:29:59.227Z,32.45
2023-05-19T06:30:59.251Z,32.45
2023-05-19T06:31:59.188Z,32.45
2023-05-19T06:32:59.191Z,32.46
2023-05-19T06:33:59.168Z,32.47
2023-05-19T06:34:59.159Z,32.46
2023-05-19T06:35:59.173Z,32.46
2023-05-19T06:36:59.154Z,32.48
2023-05-19T06:37:59.162Z,32.48
2023-05-19T06:39:01.335Z,32.46
2023-05-19T06:39:59.098Z,32.46
2023-05-19T06:40:59.094Z,32.47
2023-05-19T06:41:59.131Z,32.47
2023-05-19T06:42:59.113Z,32.48
2023-05-19T06:43:59.104Z,32.47
2023-05-19T06:44:59.110Z,32.50
2023-05-19T06:45:59.100Z,32.49
2023-05-19T06:46:59.137Z,32.49
2023-05-19T06:47:59.130Z,32.46
2023-05-19T06:48:59.046Z,32.52
2023-05-19T06:49:59.080Z,32.48
2023-05-19T06:50:59.046Z,32.49
2023-05-19T06:51:59.072Z,32.50
2023-05-19T06:52:59.039Z,32.48
2023-05-19T06:53:59.050Z,32.49
2023-05-19T06:54:59.005Z,32.48
2023-05-19T06:56:00.167Z,32.49
2023-05-19T06:56:58.978Z,32.50
2023-05-19T06:57:58.990Z,32.51
2023-05-19T06:58:58.964Z,32.51
2023-05-19T06:59:58.979Z,32.48
2023-05-19T07:00:58.986Z,32.54
2023-05-19T07:01:59.079Z,32.52
2023-05-19T07:02:59.073Z,32.53
2023-05-19T07:03:59.099Z,32.53
2023-05-19T07:04:58.952Z,32.52
2023-05-19T07:05:58.938Z,32.54
2023-05-19T07:06:58.942Z,32.48
2023-05-19T07:07:58.927Z,32.51
2023-05-19T07:08:58.945Z,32.50
2023-05-19T07:09:58.900Z,32.51
2023-05-19T07:10:58.897Z,32.51
2023-05-19T07:11:58.872Z,32.53
2023-05-19T07:12:58.905Z,32.50
2023-05-19T07:13:58.951Z,32.53
2023-05-19T07:14:58.872Z,32.52
2023-05-19T07:15:58.869Z,32.52
2023-05-19T07:16:58.853Z,32.54
2023-05-19T07:17:58.895Z,32.53
2023-05-19T07:18:58.994Z,32.52
2023-05-19T07:19:58.994Z,32.50
2023-05-19T07:20:59.085Z,32.52
2023-05-19T07:21:59.079Z,32.50
2023-05-19T07:22:59.114Z,32.52
2023-05-19T07:23:59.165Z,32.52
2023-05-19T07:24:59.162Z,32.51
2023-05-19T07:25:59.237Z,32.53
2023-05-19T07:26:59.292Z,32.54
2023-05-19T07:27:59.293Z,32.53
2023-05-19T07:28:59.346Z,32.53
2023-05-19T07:29:59.406Z,32.52
2023-05-19T07:30:59.419Z,32.54
2023-05-19T07:31:59.571Z,32.55
2023-05-19T07:32:59.499Z,32.54
2023-05-19T07:33:59.535Z,32.58
2023-05-19T07:34:59.580Z,32.55
2023-05-19T07:35:59.607Z,32.55
2023-05-19T07:36:59.689Z,32.54
2023-05-19T07:37:59.723Z,32.53
2023-05-19T07:38:59.752Z,32.55
2023-05-19T07:39:59.831Z,32.55
2023-05-19T07:40:59.868Z,32.60
2023-05-19T07:41:59.903Z,32.59
2023-05-19T07:42:59.906Z,32.56
2023-05-19T07:43:59.937Z,32.58
2023-05-19T07:45:00.008Z,32.60
2023-05-19T07:46:00.051Z,32.57
2023-05-19T07:47:00.068Z,32.58
2023-05-19T07:48:00.230Z,32.59
2023-05-19T07:49:00.153Z,32.59
2023-05-19T07:50:00.248Z,32.59
2023-05-19T07:51:00.216Z,32.57
2023-05-19T07:52:00.268Z,32.59
2023-05-19T07:53:00.332Z,32.60
2023-05-19T07:54:00.351Z,32.57
2023-05-19T07:55:01.275Z,32.60
2023-05-19T07:56:00.448Z,32.57
2023-05-19T07:57:00.515Z,32.59
2023-05-19T07:58:00.492Z,32.56
2023-05-19T07:59:00.515Z,32.57
2023-05-19T08:00:00.597Z,32.60
2023-05-19T08:01:00.641Z,32.56
2023-05-19T08:02:00.711Z,32.59
2023-05-19T08:03:00.778Z,32.59
2023-05-19T08:04:00.852Z,32.58
2023-05-19T08:05:00.809Z,32.59
2023-05-19T08:06:00.856Z,32.56
2023-05-19T08:07:00.915Z,32.57
2023-05-19T08:08:00.934Z,32.54
2023-05-19T08:09:00.958Z,32.57
2023-05-19T08:10:01.017Z,32.58
2023-05-19T08:11:01.050Z,32.58
2023-05-19T08:12:01.126Z,32.57
2023-05-19T08:13:01.201Z,32.56
2023-05-19T08:14:01.171Z,32.59
2023-05-19T08:15:01.750Z,32.55
2023-05-19T08:16:01.325Z,32.56
2023-05-19T08:17:01.327Z,32.56
2023-05-19T08:18:01.421Z,32.55
2023-05-19T08:19:01.469Z,32.55
2023-05-19T08:20:01.478Z,32.55
2023-05-19T08:21:01.508Z,32.58
2023-05-19T08:22:01.512Z,32.58
2023-05-19T08:23:01.545Z,32.55
2023-05-19T08:24:01.672Z,32.55
2023-05-19T08:25:01.650Z,32.57
2023-05-19T08:26:01.699Z,32.57
2023-05-19T08:27:01.744Z,32.58
2023-05-19T08:28:01.795Z,32.55
2023-05-19T08:29:01.816Z,32.52
2023-05-19T08:30:01.870Z,32.56
2023-05-19T08:31:02.006Z,32.54
2023-05-19T08:32:01.992Z,32.54
2023-05-19T08:33:02.033Z,32.54
2023-05-19T08:34:02.053Z,32.53
2023-05-19T08:35:02.065Z,32.51
2023-05-19T08:36:02.113Z,32.51
2023-05-19T08:37:02.158Z,32.53
2023-05-19T08:38:02.200Z,32.51
2023-05-19T08:39:02.243Z,32.55
2023-05-19T08:40:02.289Z,32.53
2023-05-19T08:41:02.338Z,32.52
2023-05-19T08:42:02.359Z,32.50
2023-05-19T08:43:02.399Z,32.52
2023-05-19T08:44:02.429Z,32.53
2023-05-19T08:45:02.516Z,32.53
2023-05-19T08:46:02.489Z,32.53
2023-05-19T08:47:02.581Z,32.50
2023-05-19T08:48:02.646Z,32.53
2023-05-19T08:49:02.615Z,32.51
2023-05-19T08:50:02.870Z,32.54
2023-05-19T08:51:02.732Z,32.55
2023-05-19T08:52:02.730Z,32.51
2023-05-19T08:53:02.800Z,32.53
2023-05-19T08:54:02.802Z,32.50
2023-05-19T08:55:02.867Z,32.50
2023-05-19T08:56:02.897Z,32.52
2023-05-19T08:57:02.925Z,32.52
2023-05-19T08:58:02.979Z,32.50
2023-05-19T08:59:02.982Z,32.53
2023-05-19T09:00:03.029Z,32.52
2023-05-19T09:01:03.109Z,32.50
2023-05-19T09:02:03.110Z,32.52
2023-05-19T09:04:03.187Z,32.56
2023-05-19T09:05:03.266Z,32.55
2023-05-19T09:06:03.165Z,32.52
2023-05-19T09:07:03.088Z,32.50
2023-05-19T09:08:03.135Z,32.52
2023-05-19T09:09:03.118Z,32.59
2023-05-19T09:10:03.091Z,32.53
2023-05-19T09:11:03.119Z,32.50
2023-05-19T09:12:03.091Z,32.52
2023-05-19T09:13:03.098Z,32.52
2023-05-19T09:14:03.052Z,32.50
2023-05-19T09:15:03.065Z,32.52
2023-05-19T09:16:03.074Z,32.49
2023-05-19T09:17:03.131Z,32.49
2023-05-19T09:18:03.051Z,32.46
2023-05-19T09:19:03.062Z,32.47
2023-05-19T09:20:03.044Z,32.43
2023-05-19T09:21:03.295Z,32.43
2023-05-19T09:22:03.031Z,32.42
2023-05-19T09:23:03.007Z,32.42
2023-05-19T09:24:02.983Z,32.42
2023-05-19T09:25:03.010Z,32.41
2023-05-19T09:26:03.005Z,32.40
2023-05-19T09:27:02.947Z,32.44
2023-05-19T09:28:02.982Z,32.45
2023-05-19T09:29:02.944Z,32.43
2023-05-19T09:30:03.008Z,32.43
2023-05-19T09:31:02.953Z,32.47
2023-05-19T09:32:02.997Z,32.43
2023-05-19T09:33:02.995Z,32.44
2023-05-19T09:34:02.924Z,32.43
2023-05-19T09:35:02.924Z,32.42
2023-05-19T09:36:02.913Z,32.43
2023-05-19T09:37:02.909Z,32.43
2023-05-19T09:38:02.962Z,32.42
2023-05-19T09:39:02.907Z,32.40
2023-05-19T09:40:02.909Z,32.43
2023-05-19T09:41:02.887Z,32.45
2023-05-19T09:42:02.878Z,32.43
2023-05-19T09:43:02.882Z,32.41
2023-05-19T09:44:03.863Z,32.42
2023-05-19T09:45:02.862Z,32.43
2023-05-19T09:46:02.847Z,32.40
2023-05-19T09:47:02.839Z,32.41
2023-05-19T09:48:02.873Z,32.39
2023-05-19T09:49:02.816Z,32.39
2023-05-19T09:50:02.827Z,32.41
2023-05-19T09:51:02.834Z,32.41
2023-05-19T09:52:02.857Z,32.43
2023-05-19T09:53:02.780Z,32.40
2023-05-19T09:54:02.770Z,32.36
2023-05-19T09:55:02.749Z,32.40
2023-05-19T09:56:02.749Z,32.38
2023-05-19T09:57:02.760Z,32.37
2023-05-19T09:58:02.742Z,32.34
2023-05-19T09:59:02.725Z,32.35
2023-05-19T10:00:02.739Z,32.33
2023-05-19T10:01:02.795Z,32.33
2023-05-19T10:02:03.144Z,32.39
2023-05-19T10:03:02.783Z,32.38
2023-05-19T10:04:03.865Z,32.38
2023-05-19T10:05:02.761Z,32.39
2023-05-19T10:06:02.698Z,32.37
2023-05-19T10:07:02.684Z,32.38
2023-05-19T10:08:02.673Z,32.38
2023-05-19T10:09:02.687Z,32.37
2023-05-19T10:10:02.665Z,32.37
2023-05-19T10:11:02.669Z,32.36
2023-05-19T10:12:02.672Z,32.38
2023-05-19T10:13:02.626Z,32.37
2023-05-19T10:14:02.629Z,32.35
2023-05-19T10:15:02.638Z,32.33
2023-05-19T10:16:02.832Z,32.34
2023-05-19T10:17:02.759Z,32.35
2023-05-19T10:18:02.678Z,32.34
2023-05-19T10:19:02.747Z,32.32
2023-05-19T10:20:02.580Z,32.36
2023-05-19T10:21:02.646Z,32.36
2023-05-19T10:22:02.556Z,32.36
2023-05-19T10:23:02.555Z,32.36
2023-05-19T10:24:02.595Z,32.38
2023-05-19T10:25:02.570Z,32.36
2023-05-19T10:26:02.551Z,32.37
2023-05-19T10:27:02.595Z,32.42
2023-05-19T10:28:02.567Z,32.38
2023-05-19T10:29:02.584Z,32.39
2023-05-19T10:30:02.565Z,32.39
2023-05-19T10:31:02.534Z,32.40
2023-05-19T10:32:02.544Z,32.41
2023-05-19T10:33:02.533Z,32.40
2023-05-19T10:34:02.520Z,32.42
2023-05-19T10:35:02.487Z,32.43
2023-05-19T10:36:02.484Z,32.41
2023-05-19T10:37:02.495Z,32.41
2023-05-19T10:38:02.512Z,32.44
2023-05-19T10:39:02.466Z,32.46
2023-05-19T10:40:02.459Z,32.48
2023-05-19T10:41:02.416Z,32.47
2023-05-19T10:42:02.467Z,32.50
2023-05-19T10:43:02.424Z,32.49
2023-05-19T10:44:02.406Z,32.52
2023-05-19T10:45:02.426Z,32.53
2023-05-19T10:46:02.373Z,32.53
2023-05-19T10:47:02.585Z,32.53
2023-05-19T10:48:02.419Z,32.56
2023-05-19T10:49:02.358Z,32.57
2023-05-19T10:50:02.383Z,32.59
2023-05-19T10:51:02.369Z,32.66
2023-05-19T10:52:02.367Z,32.67
2023-05-19T10:53:02.366Z,32.70
2023-05-19T10:54:02.393Z,32.72
2023-05-19T10:55:02.350Z,32.73
2023-05-19T10:56:02.355Z,32.75
2023-05-19T10:57:02.329Z,32.77
2023-05-19T10:58:02.393Z,32.78
2023-05-19T10:59:02.332Z,32.83
2023-05-19T11:00:02.312Z,32.81
2023-05-19T11:01:02.359Z,32.84
2023-05-19T11:02:02.297Z,32.85
2023-05-19T11:03:02.356Z,32.87
2023-05-19T11:04:02.352Z,32.94
2023-05-19T11:05:02.330Z,32.97
2023-05-19T11:06:02.266Z,33.00
2023-05-19T11:07:02.284Z,32.94
2023-05-19T11:08:02.487Z,32.93
2023-05-19T11:09:02.367Z,32.97
2023-05-19T11:10:02.261Z,32.98
2023-05-19T11:11:02.883Z,32.97
2023-05-19T11:12:02.267Z,32.94
2023-05-19T11:13:02.225Z,32.95
2023-05-19T11:14:02.231Z,32.94
2023-05-19T11:15:02.242Z,32.98
2023-05-19T11:16:02.229Z,33.00
2023-05-19T11:17:02.535Z,33.02
2023-05-19T11:18:02.295Z,33.00
2023-05-19T11:19:02.222Z,32.99
2023-05-19T11:20:02.209Z,33.01
2023-05-19T11:21:02.330Z,32.99
2023-05-19T11:22:02.202Z,33.01
2023-05-19T11:23:02.225Z,33.01
2023-05-19T11:24:02.298Z,33.02
2023-05-19T11:25:02.177Z,33.03
2023-05-19T11:26:02.141Z,33.05
2023-05-19T11:27:02.176Z,33.04
2023-05-19T11:28:02.127Z,33.07
2023-05-19T11:29:02.112Z,33.07
2023-05-19T11:30:02.419Z,33.11
2023-05-19T11:31:02.116Z,33.12
2023-05-19T11:32:02.157Z,33.13
2023-05-19T11:33:02.188Z,33.14
2023-05-19T11:34:02.133Z,33.13
2023-05-19T11:35:02.129Z,33.12
2023-05-19T11:36:02.113Z,33.15
2023-05-19T11:37:02.122Z,33.18
2023-05-19T11:38:02.091Z,33.19
2023-05-19T11:39:02.068Z,33.21
2023-05-19T11:40:02.075Z,33.21
2023-05-19T11:41:02.037Z,33.29
2023-05-19T11:42:02.022Z,33.27
2023-05-19T11:43:02.143Z,33.26
2023-05-19T11:44:02.063Z,33.29
2023-05-19T11:45:02.062Z,33.32
2023-05-19T11:46:02.206Z,33.30
2023-05-19T11:47:02.006Z,33.30
2023-05-19T11:48:03.299Z,33.30
2023-05-19T11:49:01.989Z,33.29
2023-05-19T11:50:02.032Z,33.31
2023-05-19T11:51:01.997Z,33.33
2023-05-19T11:52:01.970Z,33.33
2023-05-19T11:53:02.097Z,33.40
2023-05-19T11:54:01.995Z,33.39
2023-05-19T11:55:01.961Z,33.41
2023-05-19T11:56:01.928Z,33.42
2023-05-19T11:57:01.942Z,33.41
2023-05-19T11:58:04.460Z,33.42
2023-05-19T11:59:01.964Z,33.40
2023-05-19T12:00:01.969Z,33.42
2023-05-19T12:01:01.933Z,33.44
2023-05-19T12:02:01.924Z,33.42
2023-05-19T12:03:02.021Z,33.44
2023-05-19T12:04:01.939Z,33.43
2023-05-19T12:05:01.960Z,33.39
2023-05-19T12:06:01.935Z,33.42
2023-05-19T12:07:01.900Z,33.41
2023-05-19T12:08:01.861Z,33.44
2023-05-19T12:09:01.874Z,33.42
2023-05-19T12:10:01.850Z,33.46
2023-05-19T12:11:01.866Z,33.43
2023-05-19T12:12:01.881Z,33.46
2023-05-19T12:13:01.842Z,33.48
2023-05-19T12:14:01.851Z,33.51
2023-05-19T12:15:01.825Z,33.48
2023-05-19T12:16:01.886Z,33.49
2023-05-19T12:17:01.809Z,33.47
2023-05-19T12:18:01.883Z,33.45
2023-05-19T12:19:01.852Z,33.48
2023-05-19T12:20:01.808Z,33.46
2023-05-19T12:21:01.786Z,33.45
2023-05-19T12:22:03.401Z,33.46
2023-05-19T12:23:01.768Z,33.46
2023-05-19T12:24:01.799Z,33.45
2023-05-19T12:25:01.763Z,33.45
2023-05-19T12:26:01.763Z,33.45
2023-05-19T12:27:01.778Z,33.43
2023-05-19T12:28:01.748Z,33.43
2023-05-19T12:29:01.756Z,33.42
2023-05-19T12:30:01.750Z,33.42
2023-05-19T12:31:01.735Z,33.43
2023-05-19T12:32:01.834Z,33.40
2023-05-19T12:33:01.801Z,33.43
2023-05-19T12:34:01.703Z,33.41
2023-05-19T12:35:01.677Z,33.39
2023-05-19T12:36:01.723Z,33.38
2023-05-19T12:37:01.696Z,33.38
2023-05-19T12:38:01.701Z,33.37
2023-05-19T12:39:01.678Z,33.38
2023-05-19T12:40:01.645Z,33.38
2023-05-19T12:41:01.671Z,33.39
2023-05-19T12:42:01.668Z,33.37
2023-05-19T12:43:01.641Z,33.34
2023-05-19T12:44:01.634Z,33.33
2023-05-19T12:45:03.169Z,33.30
2023-05-19T12:46:01.860Z,33.27
2023-05-19T12:47:02.004Z,33.30
2023-05-19T12:48:01.987Z,33.29
2023-05-19T12:49:01.774Z,33.28
2023-05-19T12:50:01.852Z,33.26
2023-05-19T12:51:01.834Z,33.27
2023-05-19T12:52:02.889Z,33.27
2023-05-19T12:53:02.067Z,33.27
2023-05-19T12:54:02.065Z,33.27
2023-05-19T12:55:02.104Z,33.27